Time;durP1;ratioP1;P1;durP2;ratioP2;P2;SDS_P1;SDS_P2;PMS_P1;PMS_P2;Temp;Humidity;BMP_temperature;BMP_pressure;BME280_temperature;BME280_humidity;BME280_pressure;Samples;Min_cycle;Max_cycle;Signal;HPM_P1;HPM_P2
2021/06/01 00:01:18;;;;;;;6.15;5.47;;;16.10;99.90;;;;;;5081439;28;20025;-82
2021/06/01 00:03:44;;;;;;;6.35;5.75;;;16.10;99.90;;;;;;5077298;28;20053;-82
2021/06/01 00:06:11;;;;;;;6.95;4.72;;;16.10;99.90;;;;;;5079001;28;20067;-82
2021/06/01 00:08:37;;;;;;;4.80;4.38;;;16.10;99.90;;;;;;5071811;28;20521;-82
2021/06/01 00:11:03;;;;;;;5.82;4.90;;;16.20;99.90;;;;;;5070631;28;20086;-82
2021/06/01 00:13:29;;;;;;;6.47;5.72;;;16.30;99.90;;;;;;5070441;28;20107;-82
2021/06/01 00:15:55;;;;;;;5.65;5.00;;;16.30;99.90;;;;;;5070616;28;20099;-83
2021/06/01 00:18:21;;;;;;;5.82;5.25;;;16.30;99.90;;;;;;5078478;28;20060;-82
2021/06/01 00:20:47;;;;;;;5.38;4.88;;;16.30;99.90;;;;;;5068990;28;20028;-83
2021/06/01 00:23:13;;;;;;;4.88;4.43;;;16.30;99.90;;;;;;5070515;28;20397;-82
2021/06/01 00:25:39;;;;;;;4.70;4.30;;;16.30;99.90;;;;;;5073478;28;20417;-82
2021/06/01 00:28:04;;;;;;;4.57;3.90;;;16.40;99.90;;;;;;5069378;28;20032;-82
2021/06/01 00:30:30;;;;;;;5.45;4.38;;;16.50;99.90;;;;;;5077939;28;20017;-82
2021/06/01 00:32:56;;;;;;;6.38;4.72;;;16.50;99.90;;;;;;5076381;28;20035;-82
2021/06/01 00:35:22;;;;;;;8.82;4.82;;;16.40;99.90;;;;;;5080646;28;20043;-83
2021/06/01 00:37:48;;;;;;;6.68;4.15;;;16.40;99.90;;;;;;5084092;28;20115;-83
2021/06/01 00:40:14;;;;;;;5.57;4.57;;;16.30;99.90;;;;;;5090179;28;20434;-83
2021/06/01 00:42:39;;;;;;;5.60;4.82;;;16.40;99.90;;;;;;5078753;28;20508;-83
2021/06/01 00:45:06;;;;;;;5.13;4.68;;;16.40;99.90;;;;;;5070313;28;20045;-83
2021/06/01 00:47:32;;;;;;;4.57;4.18;;;16.50;99.90;;;;;;5077928;28;20058;-82
2021/06/01 00:49:58;;;;;;;4.45;4.03;;;16.30;99.90;;;;;;5084553;28;20122;-82
2021/06/01 00:52:23;;;;;;;6.57;4.20;;;16.30;99.90;;;;;;5071044;28;20103;-82
2021/06/01 00:54:50;;;;;;;5.55;4.63;;;16.30;99.90;;;;;;5074969;28;20020;-82
2021/06/01 00:57:15;;;;;;;5.45;4.95;;;16.10;99.90;;;;;;5073067;28;20025;-82
2021/06/01 00:59:41;;;;;;;16.17;5.57;;;15.90;99.90;;;;;;5072605;28;20492;-82
2021/06/01 01:02:07;;;;;;;7.15;4.47;;;15.80;99.90;;;;;;5074175;28;20107;-82
2021/06/01 01:04:34;;;;;;;6.55;4.75;;;15.80;99.90;;;;;;5077547;28;20423;-83
2021/06/01 01:07:17;;;;;;;10.32;4.63;;;15.70;99.90;;;;;;5077163;28;20520;-83
2021/06/01 01:09:47;;;;;;;5.93;4.88;;;15.80;99.90;;;;;;5073985;28;20081;-82
2021/06/01 01:12:22;;;;;;;;;;;15.90;99.90;;;;;;5074141;28;20108;-83
2021/06/01 01:14:55;;;;;;;4.72;4.32;;;15.90;99.90;;;;;;5073055;28;19916;-82
2021/06/01 01:17:24;;;;;;;4.68;4.28;;;15.70;99.90;;;;;;5083219;28;20103;-82
2021/06/01 01:20:05;;;;;;;6.43;4.28;;;15.80;99.90;;;;;;5078659;28;20484;-82
2021/06/01 01:22:37;;;;;;;4.57;4.03;;;15.80;99.90;;;;;;5081961;28;20016;-82
2021/06/01 01:25:12;;;;;;;6.45;4.30;;;15.90;99.90;;;;;;5094115;28;20102;-82
2021/06/01 01:28:03;;;;;;;5.10;3.92;;;15.80;99.90;;;;;;5087550;28;20077;-82
2021/06/01 01:30:36;;;;;;;6.13;4.82;;;15.90;99.90;;;;;;5073942;28;20021;-82
2021/06/01 01:33:10;;;;;;;5.10;4.68;;;15.70;99.90;;;;;;5073687;28;20032;-83
2021/06/01 01:35:37;;;;;;;10.98;4.78;;;15.80;99.90;;;;;;5073802;28;20032;-83
2021/06/01 01:38:04;;;;;;;5.20;4.70;;;15.80;99.90;;;;;;5073462;28;20076;-83
2021/06/01 01:40:33;;;;;;;5.80;4.60;;;15.80;99.90;;;;;;5076372;28;20470;-82
2021/06/01 01:43:03;;;;;;;9.98;4.88;;;15.80;99.90;;;;;;5073597;28;20028;-82
2021/06/01 01:45:32;;;;;;;6.97;4.88;;;15.60;99.90;;;;;;5085024;28;20067;-82
2021/06/01 01:50:48;;;;;;;10.13;7.60;;;15.40;99.90;;;;;;5080615;28;20047;-82
2021/06/01 01:53:15;;;;;;;6.88;6.28;;;15.40;99.90;;;;;;5072873;28;20024;-82
2021/06/01 01:55:47;;;;;;;7.00;6.32;;;15.40;99.90;;;;;;5073354;28;20032;-83
2021/06/01 01:58:14;;;;;;;12.43;7.38;;;15.40;99.90;;;;;;5073031;28;20070;-82
2021/06/01 02:00:41;;;;;;;8.35;7.07;;;15.40;99.90;;;;;;5072183;28;20036;-82
2021/06/01 02:03:08;;;;;;;8.82;6.50;;;15.40;99.90;;;;;;5073239;28;20020;-82
2021/06/01 02:05:36;;;;;;;10.68;6.55;;;15.40;99.90;;;;;;5086372;28;20035;-82
2021/06/01 02:08:02;;;;;;;6.50;5.88;;;15.60;99.90;;;;;;5092190;28;20040;-82
2021/06/01 02:10:28;;;;;;;7.45;6.68;;;15.60;99.90;;;;;;5090250;28;20028;-83
2021/06/01 02:12:54;;;;;;;8.25;7.45;;;15.60;99.90;;;;;;5093469;28;20032;-83
2021/06/01 02:15:20;;;;;;;6.82;6.13;;;15.60;99.90;;;;;;5075356;28;20440;-83
2021/06/01 02:17:46;;;;;;;9.10;6.40;;;15.60;99.90;;;;;;5073855;28;20036;-83
2021/06/01 02:20:14;;;;;;;7.10;5.53;;;15.60;99.90;;;;;;5090996;28;20489;-83
2021/06/01 02:25:54;;;;;;;7.03;6.38;;;15.30;99.90;;;;;;5092980;28;20051;-83
2021/06/01 02:28:27;;;;;;;7.07;5.57;;;15.30;99.90;;;;;;5082557;28;20021;-83
2021/06/01 02:30:58;;;;;;;7.18;6.47;;;15.30;99.90;;;;;;5090207;28;20020;-82
2021/06/01 02:33:28;;;;;;;6.35;5.68;;;15.20;99.90;;;;;;5072278;28;20078;-82
2021/06/01 02:35:54;;;;;;;11.45;5.50;;;15.20;99.90;;;;;;5074783;28;20051;-82
2021/06/01 02:38:20;;;;;;;7.15;6.28;;;15.10;99.90;;;;;;5092086;28;20028;-83
2021/06/01 02:40:48;;;;;;;8.95;5.72;;;15.10;99.90;;;;;;5080033;28;20036;-83
2021/06/01 02:43:14;;;;;;;7.65;5.95;;;15.10;99.90;;;;;;5070142;28;20032;-83
2021/06/01 02:45:42;;;;;;;6.65;6.05;;;15.20;99.90;;;;;;5092219;28;20518;-83
2021/06/01 02:48:10;;;;;;;7.30;6.60;;;15.10;99.90;;;;;;5092678;28;20512;-83
2021/06/01 02:50:36;;;;;;;6.90;5.80;;;15.10;99.90;;;;;;5080580;28;20020;-82
2021/06/01 02:53:03;;;;;;;6.93;5.90;;;15.10;99.90;;;;;;5071908;28;20150;-82
2021/06/01 02:55:29;;;;;;;7.28;6.15;;;15.20;99.90;;;;;;5089068;28;20043;-82
2021/06/01 02:57:55;;;;;;;7.03;6.30;;;15.20;99.90;;;;;;5086751;28;20024;-82
2021/06/01 03:00:23;;;;;;;6.53;5.90;;;15.20;99.90;;;;;;5072776;28;20035;-83
2021/06/01 03:02:49;;;;;;;7.50;6.18;;;15.20;99.90;;;;;;5082417;28;20050;-82
2021/06/01 03:05:17;;;;;;;6.65;6.07;;;15.10;99.90;;;;;;5092356;28;20540;-82
2021/06/01 03:07:50;;;;;;;10.77;6.60;;;15.10;99.90;;;;;;5092114;28;20381;-82
2021/06/01 03:10:16;;;;;;;6.15;5.55;;;15.20;99.90;;;;;;5091181;28;20046;-82
2021/06/01 03:15:08;;;;;;;6.22;5.72;;;15.20;99.90;;;;;;5071145;28;20104;-83
2021/06/01 03:17:34;;;;;;;7.10;6.38;;;15.30;99.90;;;;;;5071814;28;20444;-83
2021/06/01 03:20:00;;;;;;;7.15;6.45;;;15.30;99.90;;;;;;5069611;28;20029;-82
2021/06/01 03:22:26;;;;;;;6.47;5.97;;;15.30;99.90;;;;;;5069412;28;20028;-83
2021/06/01 03:24:52;;;;;;;9.20;5.75;;;15.40;99.90;;;;;;5071451;28;20440;-83
2021/06/01 03:27:18;;;;;;;5.78;5.28;;;15.40;99.90;;;;;;5069985;28;20032;-82
2021/06/01 03:29:44;;;;;;;8.40;5.65;;;15.40;99.90;;;;;;5071275;28;20037;-82
2021/06/01 03:32:09;;;;;;;7.03;5.30;;;15.50;99.90;;;;;;5071614;28;20012;-82
2021/06/01 03:34:35;;;;;;;10.98;5.93;;;15.50;99.90;;;;;;5072725;28;20115;-83
2021/06/01 03:37:01;;;;;;;6.20;5.50;;;15.50;99.90;;;;;;5090708;28;20085;-83
2021/06/01 03:39:28;;;;;;;6.00;5.25;;;15.60;99.90;;;;;;5090936;28;20043;-82
2021/06/01 03:41:54;;;;;;;6.72;5.72;;;15.60;99.90;;;;;;5088827;28;20079;-82
2021/06/01 03:44:20;;;;;;;6.32;5.07;;;15.60;99.90;;;;;;5090685;28;20048;-83
2021/06/01 03:46:46;;;;;;;5.93;5.32;;;15.70;99.90;;;;;;5070688;28;20025;-83
2021/06/01 03:49:11;;;;;;;6.03;5.32;;;15.70;99.90;;;;;;5077811;28;20043;-82
2021/06/01 03:51:37;;;;;;;5.53;4.97;;;15.70;99.90;;;;;;5069468;28;20381;-82
2021/06/01 03:54:04;;;;;;;7.03;4.47;;;15.80;99.90;;;;;;5070323;28;20036;-82
2021/06/01 03:56:32;;;;;;;6.05;5.45;;;15.80;99.90;;;;;;5071502;28;20028;-83
2021/06/01 03:58:58;;;;;;;5.38;4.88;;;15.80;99.90;;;;;;5071119;28;20566;-82
2021/06/01 04:01:25;;;;;;;11.32;5.10;;;15.80;99.90;;;;;;5084618;28;20100;-83
2021/06/01 04:03:50;;;;;;;5.35;4.43;;;15.90;99.90;;;;;;5088867;28;20034;-82
2021/06/01 04:06:16;;;;;;;5.05;4.55;;;15.90;99.90;;;;;;5082041;28;20060;-82
2021/06/01 04:08:42;;;;;;;5.05;4.55;;;15.90;99.90;;;;;;5070515;28;20075;-83
2021/06/01 04:11:08;;;;;;;9.30;4.38;;;15.90;99.90;;;;;;5071270;28;20090;-82
2021/06/01 04:13:33;;;;;;;5.60;4.40;;;15.90;99.90;;;;;;5071450;28;20064;-82
2021/06/01 04:15:59;;;;;;;5.55;4.70;;;16.00;99.90;;;;;;5073165;28;20024;-82
2021/06/01 04:18:25;;;;;;;6.97;4.57;;;16.00;99.90;;;;;;5070946;28;20078;-83
2021/06/01 04:20:51;;;;;;;4.68;4.00;;;16.10;99.90;;;;;;5070251;28;20513;-83
2021/06/01 04:23:17;;;;;;;8.70;4.65;;;16.10;99.90;;;;;;5072214;28;20032;-83
2021/06/01 04:25:43;;;;;;;7.25;4.25;;;16.10;99.90;;;;;;5070684;28;20454;-83
2021/06/01 04:28:09;;;;;;;4.95;4.55;;;16.10;99.90;;;;;;5071720;28;20062;-82
2021/06/01 04:30:35;;;;;;;7.65;4.30;;;16.10;99.90;;;;;;5073575;28;20029;-83
2021/06/01 04:33:01;;;;;;;9.18;4.82;;;16.10;99.90;;;;;;5090945;28;20092;-82
2021/06/01 04:35:26;;;;;;;6.28;5.07;;;16.20;99.90;;;;;;5093633;28;20031;-83
2021/06/01 04:37:53;;;;;;;4.85;4.45;;;16.20;99.90;;;;;;5095280;28;20055;-84
2021/06/01 04:40:20;;;;;;;7.93;5.13;;;16.10;99.90;;;;;;5088799;28;20380;-83
2021/06/01 04:42:46;;;;;;;4.75;4.15;;;16.10;99.90;;;;;;5095066;28;20108;-83
2021/06/01 04:45:15;;;;;;;5.68;3.72;;;16.10;99.90;;;;;;5095029;28;20044;-83
2021/06/01 04:47:42;;;;;;;4.28;3.95;;;16.10;99.90;;;;;;5095624;28;20030;-83
2021/06/01 04:50:08;;;;;;;8.00;4.03;;;16.10;99.90;;;;;;5082173;28;20082;-83
2021/06/01 04:52:34;;;;;;;6.35;5.05;;;16.10;99.90;;;;;;5078856;28;20605;-83
2021/06/01 04:55:00;;;;;;;6.75;4.95;;;16.10;99.90;;;;;;5078190;28;20017;-83
2021/06/01 04:57:26;;;;;;;8.10;4.38;;;16.10;99.90;;;;;;5096126;28;20028;-83
2021/06/01 04:59:52;;;;;;;5.60;4.22;;;16.10;99.90;;;;;;5089720;28;20385;-84
2021/06/01 05:02:17;;;;;;;7.05;4.60;;;16.10;99.90;;;;;;5075142;28;20048;-84
2021/06/01 05:04:43;;;;;;;6.55;4.85;;;16.20;99.90;;;;;;5074386;28;20020;-83
2021/06/01 05:07:09;;;;;;;5.65;4.30;;;16.20;99.90;;;;;;5085306;28;20028;-84
2021/06/01 05:09:35;;;;;;;6.28;4.68;;;16.20;99.90;;;;;;5094501;28;20043;-84
2021/06/01 05:12:01;;;;;;;6.35;4.22;;;16.20;99.90;;;;;;5091314;28;20481;-84
2021/06/01 05:14:27;;;;;;;5.47;4.50;;;16.30;99.90;;;;;;5094296;28;20019;-84
2021/06/01 05:16:53;;;;;;;6.43;3.55;;;16.30;99.90;;;;;;5085049;28;20166;-84
2021/06/01 05:19:18;;;;;;;5.03;4.00;;;16.30;99.90;;;;;;5087164;28;20477;-84
2021/06/01 05:21:44;;;;;;;7.90;4.47;;;16.40;99.90;;;;;;5079582;28;20043;-84
2021/06/01 05:24:11;;;;;;;5.55;4.05;;;16.40;99.90;;;;;;5083382;28;20024;-84
2021/06/01 05:26:37;;;;;;;4.25;3.95;;;16.50;99.90;;;;;;5092250;28;20055;-84
2021/06/01 05:29:03;;;;;;;5.07;3.92;;;16.50;99.90;;;;;;5094120;28;20060;-84
2021/06/01 05:33:56;;;;;;;16.77;4.13;;;16.50;99.90;;;;;;5083074;28;20016;-82
2021/06/01 05:36:24;;;;;;;3.92;3.53;;;16.60;99.90;;;;;;5082987;28;20028;-84
2021/06/01 05:38:50;;;;;;;5.20;4.75;;;16.60;99.90;;;;;;5081791;28;20421;-83
2021/06/01 05:41:16;;;;;;;9.80;4.70;;;16.50;99.90;;;;;;5084954;28;20074;-84
2021/06/01 05:43:42;;;;;;;6.13;3.75;;;16.50;99.90;;;;;;5080123;28;20496;-82
2021/06/01 05:46:09;;;;;;;8.38;4.20;;;16.60;99.90;;;;;;5080425;28;20127;-83
2021/06/01 05:48:35;;;;;;;6.18;3.97;;;16.60;99.90;;;;;;5092269;28;20042;-83
2021/06/01 05:51:01;;;;;;;5.20;4.22;;;16.60;99.90;;;;;;5077281;28;20024;-83
2021/06/01 05:53:27;;;;;;;5.63;3.72;;;16.60;99.90;;;;;;5077144;28;20073;-83
2021/06/01 05:55:54;;;;;;;4.80;4.30;;;16.60;99.90;;;;;;5084861;28;20059;-83
2021/06/01 05:58:21;;;;;;;8.00;4.25;;;16.60;99.90;;;;;;5086302;28;20032;-83
2021/06/01 06:00:46;;;;;;;4.45;4.05;;;16.60;99.90;;;;;;5076016;28;20127;-76
2021/06/01 06:03:14;;;;;;;6.05;4.43;;;16.50;99.90;;;;;;5073642;28;20414;-77
2021/06/01 06:05:40;;;;;;;7.30;4.32;;;16.60;99.90;;;;;;5074374;28;20039;-76
2021/06/01 06:08:10;;;;;;;7.03;4.57;;;16.70;99.90;;;;;;5074214;28;20017;-76
2021/06/01 06:10:37;;;;;;;5.28;3.80;;;16.80;99.90;;;;;;5073644;28;20020;-76
2021/06/01 06:13:03;;;;;;;4.88;4.47;;;16.70;99.90;;;;;;5072375;28;20048;-76
2021/06/01 06:15:29;;;;;;;6.90;4.25;;;16.80;99.90;;;;;;5073467;28;20024;-75
2021/06/01 06:18:04;;;;;;;8.60;5.22;;;16.80;99.90;;;;;;5075049;28;20025;-75
2021/06/01 06:20:31;;;;;;;8.23;4.07;;;16.90;99.90;;;;;;5092311;28;20024;-75
2021/06/01 06:22:58;;;;;;;5.88;4.35;;;16.80;99.90;;;;;;5093766;28;20028;-75
2021/06/01 06:25:24;;;;;;;5.35;3.60;;;16.90;99.90;;;;;;5093256;28;20024;-75
2021/06/01 06:27:50;;;;;;;6.15;3.75;;;17.00;99.90;;;;;;5092322;28;20069;-75
2021/06/01 06:30:16;;;;;;;4.68;4.18;;;17.10;99.90;;;;;;5093344;28;20058;-75
2021/06/01 06:32:42;;;;;;;9.13;4.32;;;17.20;99.90;;;;;;5093191;28;20027;-75
2021/06/01 06:35:09;;;;;;;5.05;4.35;;;17.20;99.90;;;;;;5093299;28;20375;-75
2021/06/01 06:37:35;;;;;;;6.22;4.50;;;17.30;99.90;;;;;;5093212;28;20099;-75
2021/06/01 06:40:02;;;;;;;4.28;3.50;;;17.40;99.90;;;;;;5093246;28;20104;-75
2021/06/01 06:42:28;;;;;;;5.53;3.88;;;17.40;99.90;;;;;;5093095;28;20382;-75
2021/06/01 06:44:54;;;;;;;4.25;3.85;;;17.40;99.90;;;;;;5092815;28;20052;-75
2021/06/01 06:47:25;;;;;;;4.85;4.32;;;17.40;99.90;;;;;;5092781;28;20023;-75
2021/06/01 06:49:53;;;;;;;5.25;4.40;;;17.40;99.90;;;;;;5091999;28;20392;-75
2021/06/01 06:52:19;;;;;;;6.20;4.45;;;17.40;99.90;;;;;;5093033;28;20457;-75
2021/06/01 06:54:45;;;;;;;5.28;4.55;;;17.40;99.90;;;;;;5091857;28;20060;-75
2021/06/01 06:57:11;;;;;;;5.32;4.28;;;17.30;99.90;;;;;;5092221;28;20024;-75
2021/06/01 06:59:37;;;;;;;7.30;4.38;;;17.40;99.90;;;;;;5092523;28;20435;-75
2021/06/01 07:02:04;;;;;;;4.40;3.95;;;17.50;99.90;;;;;;5093000;28;20035;-75
2021/06/01 07:04:29;;;;;;;5.55;4.57;;;17.40;99.90;;;;;;5092846;28;20112;-75
2021/06/01 07:06:56;;;;;;;4.95;4.45;;;17.50;99.90;;;;;;5092957;28;20099;-75
2021/06/01 07:09:23;;;;;;;11.68;4.57;;;17.40;99.90;;;;;;5092489;28;20020;-75
2021/06/01 07:11:49;;;;;;;6.40;4.72;;;17.40;99.90;;;;;;5092989;28;20477;-75
2021/06/01 07:14:18;;;;;;;5.35;3.88;;;17.40;99.90;;;;;;5092545;28;20173;-75
2021/06/01 07:16:45;;;;;;;4.70;4.03;;;17.40;99.90;;;;;;5092682;28;20488;-75
2021/06/01 07:19:12;;;;;;;5.05;4.65;;;17.40;99.90;;;;;;5092516;28;20474;-75
2021/06/01 07:21:38;;;;;;;7.10;4.90;;;17.40;99.90;;;;;;5092743;28;20020;-75
2021/06/01 07:24:05;;;;;;;5.25;4.55;;;17.30;99.90;;;;;;5092651;28;20036;-75
2021/06/01 07:26:31;;;;;;;7.90;4.38;;;17.30;99.90;;;;;;5092431;28;20024;-75
2021/06/01 07:28:59;;;;;;;6.53;4.95;;;17.30;99.90;;;;;;5092313;28;20081;-76
2021/06/01 07:31:25;;;;;;;5.43;4.78;;;17.30;99.90;;;;;;5092200;28;20388;-76
2021/06/01 07:33:51;;;;;;;6.72;4.65;;;17.30;99.90;;;;;;5092727;28;20111;-75
2021/06/01 07:36:19;;;;;;;5.53;5.03;;;17.30;99.90;;;;;;5092614;28;20024;-75
2021/06/01 07:38:45;;;;;;;8.68;5.68;;;17.40;99.90;;;;;;5091057;28;20040;-75
2021/06/01 07:41:11;;;;;;;7.78;5.47;;;17.40;99.90;;;;;;5092426;28;20028;-75
2021/06/01 07:43:37;;;;;;;6.80;5.38;;;17.50;99.90;;;;;;5091952;28;20035;-75
2021/06/01 07:46:03;;;;;;;5.60;4.97;;;17.50;99.90;;;;;;5091966;28;20097;-75
2021/06/01 07:48:34;;;;;;;9.45;5.35;;;17.60;99.90;;;;;;5090719;28;20503;-75
2021/06/01 07:51:00;;;;;;;6.30;5.35;;;17.70;99.90;;;;;;5092411;28;20016;-75
2021/06/01 07:53:26;;;;;;;7.55;5.18;;;17.80;99.90;;;;;;5092050;28;20028;-76
2021/06/01 07:55:53;;;;;;;5.47;4.97;;;18.00;99.90;;;;;;5090892;28;20115;-76
2021/06/01 07:58:19;;;;;;;8.05;4.82;;;18.20;99.90;;;;;;5091769;28;20059;-76
2021/06/01 08:00:46;;;;;;;4.72;4.28;;;18.40;99.90;;;;;;5092169;28;20052;-75
2021/06/01 08:03:15;;;;;;;5.57;4.22;;;18.50;99.90;;;;;;5092205;28;20103;-75
2021/06/01 08:05:41;;;;;;;7.57;4.22;;;18.50;99.90;;;;;;5092006;28;20043;-75
2021/06/01 08:08:06;;;;;;;5.40;4.57;;;18.70;99.90;;;;;;5093285;28;20474;-76
2021/06/01 08:10:32;;;;;;;4.57;4.20;;;18.80;99.90;;;;;;5096058;28;20031;-76
2021/06/01 08:12:58;;;;;;;5.70;4.95;;;18.80;99.90;;;;;;5096125;28;20013;-76
2021/06/01 08:15:25;;;;;;;4.70;4.20;;;18.80;99.90;;;;;;5096037;28;20385;-76
2021/06/01 08:17:54;;;;;;;6.47;5.13;;;18.90;99.90;;;;;;5095960;28;20390;-76
2021/06/01 08:22:56;;;;;;;4.40;4.00;;;19.00;99.90;;;;;;5096059;28;20032;-76
2021/06/01 08:25:21;;;;;;;6.13;4.38;;;19.10;99.90;;;;;;5095983;28;20027;-75
2021/06/01 08:27:48;;;;;;;7.22;4.85;;;19.30;99.90;;;;;;5095403;28;20409;-76
2021/06/01 08:30:14;;;;;;;6.43;4.90;;;19.40;99.90;;;;;;5096065;28;20038;-76
2021/06/01 08:32:40;;;;;;;7.38;4.75;;;19.60;99.90;;;;;;5095631;28;20492;-76
2021/06/01 08:35:07;;;;;;;4.35;4.05;;;19.30;99.90;;;;;;5095824;28;20052;-76
2021/06/01 08:37:33;;;;;;;7.78;4.32;;;19.60;99.90;;;;;;5095367;28;20035;-76
2021/06/01 08:39:58;;;;;;;6.85;4.40;;;19.60;99.90;;;;;;5095775;28;20024;-76
2021/06/01 08:42:24;;;;;;;4.45;4.05;;;19.90;99.90;;;;;;5095271;28;20043;-76
2021/06/01 08:44:51;;;;;;;5.63;5.13;;;19.90;99.90;;;;;;5093846;28;20043;-75
2021/06/01 08:47:19;;;;;;;7.57;5.47;;;19.90;99.90;;;;;;5095505;28;20081;-76
2021/06/01 08:49:48;;;;;;;5.82;4.32;;;20.00;99.90;;;;;;5095535;28;20095;-76
2021/06/01 08:52:18;;;;;;;6.28;4.15;;;19.80;99.90;;;;;;5095539;28;20031;-76
2021/06/01 08:54:45;;;;;;;6.32;4.10;;;19.50;99.90;;;;;;5095290;28;20554;-76
2021/06/01 08:57:11;;;;;;;5.10;4.00;;;19.40;99.90;;;;;;5095067;28;20052;-75
2021/06/01 08:59:36;;;;;;;5.90;4.88;;;19.30;99.90;;;;;;5095171;28;20097;-76
2021/06/01 09:02:03;;;;;;;5.90;4.47;;;19.30;99.90;;;;;;5095257;28;20413;-76
2021/06/01 09:04:55;;;;;;;4.72;4.32;;;19.40;99.90;;;;;;5094995;28;20034;-76
2021/06/01 09:10:41;;;;;;;5.75;3.90;;;19.80;99.90;;;;;;5032492;28;20026;-76
2021/06/01 09:21:15;;;;;;;6.35;4.18;;;20.60;99.90;;;;;;5031773;28;20039;-76
2021/06/01 09:23:48;;;;;;;7.13;4.22;;;20.70;99.90;;;;;;5032258;28;20030;-76
2021/06/01 09:26:55;;;;;;;6.65;4.07;;;21.10;99.90;;;;;;5032056;28;20105;-77
2021/06/01 09:29:21;;;;;;;4.28;3.88;;;21.20;99.90;;;;;;5032328;28;20095;-76
2021/06/01 09:32:09;;;;;;;5.22;4.20;;;21.60;99.90;;;;;;5032230;28;20104;-76
2021/06/01 09:34:39;;;;;;;5.63;4.20;;;21.30;99.90;;;;;;5032333;28;20033;-76
2021/06/01 09:37:18;;;;;;;5.13;4.40;;;21.20;99.90;;;;;;5032273;28;20061;-76
2021/06/01 09:39:44;;;;;;;5.22;4.38;;;21.40;99.90;;;;;;5031672;28;20033;-76
2021/06/01 09:42:29;;;;;;;6.00;4.10;;;21.70;99.90;;;;;;5032401;28;20415;-76
2021/06/01 09:45:17;;;;;;;8.10;3.78;;;21.50;99.90;;;;;;5062413;28;20052;-76
2021/06/01 09:47:50;;;;;;;5.47;3.95;;;21.50;99.90;;;;;;5073919;28;20029;-76
2021/06/01 09:53:16;;;;;;;7.20;4.85;;;21.80;99.90;;;;;;5074002;28;20028;-76
2021/06/01 09:55:46;;;;;;;5.38;3.78;;;23.10;99.90;;;;;;5073528;28;20051;-76
2021/06/01 09:58:16;;;;;;;6.82;4.20;;;23.30;99.90;;;;;;5074034;28;20052;-76
2021/06/01 10:00:44;;;;;;;5.10;4.10;;;22.60;99.90;;;;;;5073720;28;20066;-76
2021/06/01 10:03:20;;;;;;;4.15;3.75;;;21.60;99.90;;;;;;5073874;28;20040;-76
2021/06/01 10:05:49;;;;;;;4.82;3.63;;;21.40;99.90;;;;;;5073622;28;20070;-76
2021/06/01 10:08:21;;;;;;;7.68;4.65;;;22.10;99.90;;;;;;5073604;28;20024;-76
2021/06/01 10:10:57;;;;;;;5.63;4.00;;;22.70;99.90;;;;;;5073529;28;20031;-76
2021/06/01 10:13:25;;;;;;;4.55;4.05;;;23.00;99.90;;;;;;5073728;28;20037;-77
2021/06/01 10:15:52;;;;;;;6.43;3.92;;;24.10;99.90;;;;;;5073646;28;20390;-76
2021/06/01 10:18:19;;;;;;;6.55;3.83;;;26.30;99.90;;;;;;5078551;28;20020;-76
2021/06/01 10:20:50;;;;;;;4.30;4.00;;;28.40;99.90;;;;;;5092261;28;20397;-76
2021/06/01 10:23:27;;;;;;;6.28;4.10;;;29.10;99.90;;;;;;5093401;28;20024;-76
2021/06/01 10:25:54;;;;;;;5.60;4.68;;;29.40;99.90;;;;;;5093371;28;20118;-76
2021/06/01 10:28:32;;;;;;;4.47;4.07;;;29.20;99.90;;;;;;5093857;28;20020;-77
2021/06/01 10:30:58;;;;;;;4.55;3.80;;;29.60;99.90;;;;;;5093505;28;20016;-77
2021/06/01 10:33:27;;;;;;;4.68;3.75;;;30.80;99.90;;;;;;5093379;28;20082;-77
2021/06/01 10:42:30;;;;;;;7.27;4.37;;;32.00;99.90;;;;;;5093357;28;20023;-77
2021/06/01 10:44:46;;;;;;;5.20;3.78;;;25.20;99.90;;;;;;5093388;28;20459;-77
2021/06/01 10:50:23;;;;;;;5.55;3.88;;;30.40;99.90;;;;;;5093226;28;20069;-77
2021/06/01 10:53:09;;;;;;;5.80;3.58;;;31.50;99.90;;;;;;5092578;28;20035;-77
2021/06/01 10:55:54;;;;;;;4.15;3.72;;;30.10;99.90;;;;;;5093098;28;20012;-77
2021/06/01 10:58:23;;;;;;;8.43;4.30;;;30.60;99.90;;;;;;5093237;28;20389;-77
2021/06/01 11:03:17;;;;;;;4.30;4.00;;;28.00;99.90;;;;;;5093242;28;20069;-77
2021/06/01 11:06:04;;;;;;;4.13;3.80;;;28.90;99.90;;;;;;5092606;28;20393;-77
2021/06/01 11:08:45;;;;;;;4.00;3.67;;;28.20;99.90;;;;;;5092973;28;20111;-77
2021/06/01 11:11:22;;;;;;;5.00;3.88;;;27.10;99.90;;;;;;5092899;28;20016;-77
2021/06/01 11:13:49;;;;;;;4.57;3.72;;;27.40;99.90;;;;;;5092706;28;20029;-77
2021/06/01 11:16:15;;;;;;;4.03;3.53;;;29.10;99.90;;;;;;5091512;28;20056;-77
2021/06/01 11:18:50;;;;;;;6.32;4.05;;;28.00;99.90;;;;;;5092313;28;20028;-77
2021/06/01 11:35:26;;;;;;;5.88;4.07;;;28.80;99.90;;;;;;5092099;28;20035;-77
2021/06/01 11:43:10;;;;;;;4.30;3.90;;;29.00;99.90;;;;;;5091691;28;20032;-77
2021/06/01 11:51:45;;;;;;;;;;;25.90;99.90;;;;;;5050444;28;20039;-77
2021/06/01 11:54:14;;;;;;;6.93;3.55;;;25.50;99.90;;;;;;5050423;28;19916;-76
2021/06/01 12:13:44;;;;;;;4.85;3.80;;;25.50;99.90;;;;;;5030015;28;20045;-76
2021/06/01 12:21:12;;;;;;;5.82;4.15;;;26.80;99.90;;;;;;5049560;28;20040;-77
2021/06/01 12:23:43;;;;;;;5.22;4.00;;;27.30;99.90;;;;;;5052879;28;20115;-77
2021/06/01 12:26:24;;;;;;;5.95;4.10;;;27.30;99.90;;;;;;5071565;28;20024;-77
2021/06/01 12:32:36;;;;;;;5.13;3.90;;;26.20;99.90;;;;;;5071589;28;20035;-77
2021/06/01 12:46:12;;;;;;;5.65;4.07;;;27.60;99.90;;;;;;5029301;28;20629;-77
2021/06/01 13:22:45;;;;;;;;;;;34.00;92.60;;;;;;5095077;28;20028;-77
2021/06/01 13:37:42;;;;;;;4.38;4.00;;;33.30;87.40;;;;;;5094707;28;20097;-77
2021/06/01 13:46:20;;;;;;;4.50;4.07;;;31.70;92.40;;;;;;5093941;28;20051;-77
2021/06/01 13:56:25;;;;;;;5.13;4.15;;;27.50;99.90;;;;;;5094134;28;20036;-77
2021/06/01 14:01:50;;;;;;;6.15;4.53;;;27.20;99.90;;;;;;5093673;28;20036;-77
2021/06/01 15:05:36;;;;;;;8.30;4.70;;;24.10;99.90;;;;;;5072748;28;20047;-76
2021/06/01 15:29:57;;;;;;;10.40;5.10;;;21.10;99.90;;;;;;5092066;28;20158;-76
2021/06/01 15:32:07;;;;;;;11.18;5.70;;;21.10;99.90;;;;;;5092048;28;20035;-76
2021/06/01 16:29:35;;;;;;;14.05;7.05;;;19.10;99.90;;;;;;5089986;28;20031;-77
2021/06/01 17:04:49;;;;;;;10.13;5.93;;;19.50;99.90;;;;;;5085074;28;20097;-77
2021/06/01 17:07:53;;;;;;;8.80;6.05;;;19.50;99.90;;;;;;5074953;28;20081;-77
2021/06/01 17:13:06;;;;;;;7.93;6.35;;;19.80;99.90;;;;;;5081512;28;20043;-77
2021/06/01 17:15:36;;;;;;;9.10;6.78;;;19.70;99.90;;;;;;5078323;28;20016;-76
2021/06/01 17:18:30;;;;;;;9.32;6.07;;;19.70;99.90;;;;;;5081126;28;20503;-78
2021/06/01 17:34:55;;;;;;;9.77;6.30;;;19.50;99.90;;;;;;5016421;28;20593;-78
2021/06/01 17:37:22;;;;;;;8.85;6.28;;;19.50;99.90;;;;;;5015330;28;20037;-78
2021/06/01 17:39:48;;;;;;;7.32;6.55;;;19.30;99.90;;;;;;5010555;28;20038;-78
2021/06/01 17:42:19;;;;;;;7.43;6.57;;;19.40;99.90;;;;;;5018644;28;20450;-78
2021/06/01 17:44:47;;;;;;;11.52;7.40;;;19.60;99.90;;;;;;5018826;28;20091;-77
2021/06/01 17:47:17;;;;;;;8.38;6.97;;;19.60;99.90;;;;;;5020064;28;20041;-76
2021/06/01 17:49:49;;;;;;;8.38;6.70;;;19.50;99.90;;;;;;5015857;28;20566;-76
2021/06/01 17:52:22;;;;;;;8.27;6.20;;;19.50;99.90;;;;;;5022320;28;20038;-76
2021/06/01 17:54:51;;;;;;;9.55;6.43;;;19.50;99.90;;;;;;5022486;28;20112;-76
2021/06/01 17:57:18;;;;;;;10.30;6.65;;;19.40;99.90;;;;;;5009930;28;20061;-76
2021/06/01 17:59:45;;;;;;;12.35;6.80;;;19.40;99.90;;;;;;5015291;28;20461;-76
2021/06/01 18:02:13;;;;;;;12.27;8.23;;;19.20;99.90;;;;;;5008943;28;20508;-76
2021/06/01 18:04:47;;;;;;;7.13;6.45;;;19.20;99.90;;;;;;5010115;28;20085;-76
2021/06/01 18:08:18;;;;;;;9.02;7.53;;;19.20;99.90;;;;;;5008251;28;20037;-75
2021/06/01 18:40:53;;;;;;;10.55;6.85;;;19.30;99.90;;;;;;4985617;28;20038;-75
2021/06/01 19:06:01;;;;;;;7.68;4.60;;;18.80;99.90;;;;;;4979689;28;20272;-75
2021/06/01 19:24:54;;;;;;;5.40;4.22;;;18.10;99.90;;;;;;5089697;28;20028;-75
2021/06/01 19:49:55;;;;;;;4.72;4.13;;;17.50;99.90;;;;;;5067457;28;19954;-75
2021/06/01 19:52:18;;;;;;;8.80;4.43;;;17.40;99.90;;;;;;5083586;28;20028;-75
2021/06/01 19:54:44;;;;;;;;;;;17.40;99.90;;;;;;5081241;28;20536;-75
2021/06/01 19:57:12;;;;;;;7.20;4.15;;;17.40;99.90;;;;;;5081953;28;19908;-75
2021/06/01 19:59:39;;;;;;;6.47;3.75;;;17.50;99.90;;;;;;5086370;28;20024;-75
2021/06/01 20:02:05;;;;;;;5.25;3.70;;;17.50;99.90;;;;;;5084025;28;20109;-75
2021/06/01 20:04:32;;;;;;;6.47;4.07;;;17.50;99.90;;;;;;5081012;28;20429;-75
2021/06/01 20:06:59;;;;;;;4.38;3.50;;;17.50;99.90;;;;;;5091288;28;20435;-75
2021/06/01 20:09:25;;;;;;;5.35;3.38;;;17.50;99.90;;;;;;5086333;28;20020;-75
2021/06/01 20:11:51;;;;;;;4.32;3.78;;;17.50;99.90;;;;;;5088539;28;20023;-75
2021/06/01 20:14:17;;;;;;;3.63;3.30;;;17.30;99.90;;;;;;5089903;28;20099;-74
2021/06/01 20:16:49;;;;;;;4.10;3.28;;;17.30;99.90;;;;;;5088128;28;20523;-74
2021/06/01 20:19:17;;;;;;;4.13;3.70;;;17.30;99.90;;;;;;5083106;28;20035;-75